createdAt,value
2022-11-13T00:00:26.316Z,1023.16
2022-11-13T00:01:26.303Z,1023.18
2022-11-13T00:02:26.336Z,1023.18
2022-11-13T00:03:26.305Z,1023.19
2022-11-13T00:04:26.298Z,1023.16
2022-11-13T00:05:26.418Z,1023.17
2022-11-13T00:06:26.292Z,1023.16
2022-11-13T00:07:26.325Z,1023.21
2022-11-13T00:08:26.885Z,1023.16
2022-11-13T00:09:26.277Z,1023.15
2022-11-13T00:10:26.279Z,1023.15
2022-11-13T00:11:26.273Z,1023.10
2022-11-13T00:12:26.271Z,1023.10
2022-11-13T00:13:30.318Z,1023.08
2022-11-13T00:14:26.260Z,1023.14
2022-11-13T00:15:26.262Z,1023.08
2022-11-13T00:16:26.254Z,1023.10
2022-11-13T00:17:26.257Z,1023.06
2022-11-13T00:18:26.530Z,1023.06
2022-11-13T00:19:26.247Z,1023.06
2022-11-13T00:20:26.253Z,1023.07
2022-11-13T00:21:26.360Z,1023.07
2022-11-13T00:22:26.251Z,1023.08
2022-11-13T00:23:26.241Z,1023.08
2022-11-13T00:24:26.231Z,1023.06
2022-11-13T00:25:26.237Z,1023.10
2022-11-13T00:26:26.224Z,1023.10
2022-11-13T00:27:26.219Z,1023.11
2022-11-13T00:28:26.527Z,1023.08
2022-11-13T00:29:26.222Z,1023.06
2022-11-13T00:30:26.220Z,1023.01
2022-11-13T00:31:26.219Z,1023.03
2022-11-13T00:32:26.211Z,1023.04
2022-11-13T00:33:54.939Z,1023.00
2022-11-13T00:34:46.601Z,1023.02
2022-11-13T00:35:26.200Z,1022.98
2022-11-13T00:36:26.711Z,1023.01
2022-11-13T00:37:26.311Z,1022.97
2022-11-13T00:38:26.551Z,1022.91
2022-11-13T00:39:26.191Z,1022.93
2022-11-13T00:40:26.193Z,1022.90
2022-11-13T00:41:26.183Z,1022.94
2022-11-13T00:42:26.173Z,1022.92
2022-11-13T00:43:26.174Z,1022.94
2022-11-13T00:44:26.174Z,1022.92
2022-11-13T00:45:26.164Z,1022.94
2022-11-13T00:46:26.161Z,1022.91
2022-11-13T00:47:26.165Z,1022.85
2022-11-13T00:48:26.593Z,1022.87
2022-11-13T00:49:26.151Z,1022.82
2022-11-13T00:50:26.146Z,1022.82
2022-11-13T00:51:26.148Z,1022.79
2022-11-13T00:52:26.155Z,1022.74
2022-11-13T00:53:26.266Z,1022.77
2022-11-13T00:54:26.148Z,1022.78
2022-11-13T00:55:26.139Z,1022.80
2022-11-13T00:56:26.136Z,1022.75
2022-11-13T00:57:26.130Z,1022.74
2022-11-13T00:58:26.581Z,1022.77
2022-11-13T00:59:26.119Z,1022.72
2022-11-13T01:00:26.117Z,1022.74
2022-11-13T01:01:26.144Z,1022.72
2022-11-13T01:02:26.117Z,1022.69
2022-11-13T01:03:26.111Z,1022.69
2022-11-13T01:04:26.104Z,1022.71
2022-11-13T01:05:26.097Z,1022.69
2022-11-13T01:06:26.111Z,1022.68
2022-11-13T01:07:26.101Z,1022.66
2022-11-13T01:08:26.398Z,1022.68
2022-11-13T01:09:26.205Z,1022.70
2022-11-13T01:10:26.091Z,1022.69
2022-11-13T01:11:26.103Z,1022.68
2022-11-13T01:12:26.090Z,1022.68
2022-11-13T01:13:26.083Z,1022.68
2022-11-13T01:14:26.077Z,1022.67
2022-11-13T01:15:26.124Z,1022.68
2022-11-13T01:16:26.079Z,1022.68
2022-11-13T01:17:26.060Z,1022.61
2022-11-13T01:18:26.409Z,1022.62
2022-11-13T01:19:26.066Z,1022.63
2022-11-13T01:20:26.058Z,1022.59
2022-11-13T01:21:26.059Z,1022.63
2022-11-13T01:22:26.044Z,1022.58
2022-11-13T01:23:26.048Z,1022.61
2022-11-13T01:24:26.046Z,1022.61
2022-11-13T01:25:26.167Z,1022.64
2022-11-13T01:26:26.035Z,1022.60
2022-11-13T01:27:26.034Z,1022.63
2022-11-13T01:28:26.370Z,1022.59
2022-11-13T01:29:26.028Z,1022.60
2022-11-13T01:30:26.029Z,1022.63
2022-11-13T01:31:26.033Z,1022.66
2022-11-13T01:32:26.020Z,1022.62
2022-11-13T01:33:26.007Z,1022.65
2022-11-13T01:34:26.015Z,1022.57
2022-11-13T01:35:26.017Z,1022.58
2022-11-13T01:36:26.004Z,1022.58
2022-11-13T01:37:25.996Z,1022.57
2022-11-13T01:38:26.461Z,1022.57
2022-11-13T01:39:25.987Z,1022.53
2022-11-13T01:40:25.998Z,1022.50
2022-11-13T01:41:26.105Z,1022.48
2022-11-13T01:42:25.990Z,1022.49
2022-11-13T01:43:25.979Z,1022.47
2022-11-13T01:44:25.984Z,1022.45
2022-11-13T01:45:25.972Z,1022.47
2022-11-13T01:46:25.969Z,1022.42
2022-11-13T01:47:25.977Z,1022.40
2022-11-13T01:48:26.389Z,1022.44
2022-11-13T01:49:25.960Z,1022.46
2022-11-13T01:50:25.962Z,1022.41
2022-11-13T01:51:25.958Z,1022.42
2022-11-13T01:52:25.961Z,1022.42
2022-11-13T01:53:25.951Z,1022.41
2022-11-13T01:54:25.953Z,1022.36
2022-11-13T01:55:25.940Z,1022.36
2022-11-13T01:56:25.957Z,1022.40
2022-11-13T01:57:26.064Z,1022.35
2022-11-13T01:58:26.311Z,1022.36
2022-11-13T01:59:25.931Z,1022.33
2022-11-13T02:00:25.937Z,1022.34
2022-11-13T02:01:25.971Z,1022.31
2022-11-13T02:02:25.920Z,1022.31
2022-11-13T02:03:25.919Z,1022.25
2022-11-13T02:04:25.915Z,1022.24
2022-11-13T02:05:25.915Z,1022.28
2022-11-13T02:06:25.913Z,1022.24
2022-11-13T02:07:25.937Z,1022.24
2022-11-13T02:08:26.355Z,1022.26
2022-11-13T02:09:25.892Z,1022.20
2022-11-13T02:10:25.902Z,1022.18
2022-11-13T02:11:25.897Z,1022.18
2022-11-13T02:12:25.895Z,1022.20
2022-11-13T02:13:26.003Z,1022.20
2022-11-13T02:14:25.885Z,1022.18
2022-11-13T02:15:25.887Z,1022.17
2022-11-13T02:16:25.882Z,1022.18
2022-11-13T02:17:25.874Z,1022.16
2022-11-13T02:18:26.193Z,1022.18
2022-11-13T02:19:25.862Z,1022.18
2022-11-13T02:20:25.873Z,1022.15
2022-11-13T02:21:25.862Z,1022.15
2022-11-13T02:22:25.862Z,1022.12
2022-11-13T02:23:25.850Z,1022.10
2022-11-13T02:24:25.855Z,1022.09
2022-11-13T02:25:25.848Z,1022.06
2022-11-13T02:26:25.842Z,1022.09
2022-11-13T02:27:25.843Z,1022.06
2022-11-13T02:28:26.156Z,1022.03
2022-11-13T02:29:25.938Z,1022.02
2022-11-13T02:30:27.367Z,1022.01
2022-11-13T02:31:25.824Z,1022.03
2022-11-13T02:32:25.824Z,1021.96
2022-11-13T02:33:25.824Z,1021.97
2022-11-13T02:34:25.821Z,1021.96
2022-11-13T02:35:25.819Z,1021.92
2022-11-13T02:36:25.819Z,1021.91
2022-11-13T02:37:25.808Z,1021.90
2022-11-13T02:38:26.213Z,1021.90
2022-11-13T02:39:25.801Z,1021.86
2022-11-13T02:40:25.792Z,1021.82
2022-11-13T02:41:25.785Z,1021.87
2022-11-13T02:42:25.785Z,1021.86
2022-11-13T02:43:25.782Z,1021.85
2022-11-13T02:44:25.787Z,1021.86
2022-11-13T02:45:25.890Z,1021.84
2022-11-13T02:46:25.786Z,1021.85
2022-11-13T02:47:25.773Z,1021.83
2022-11-13T02:48:26.140Z,1021.82
2022-11-13T02:49:25.761Z,1021.86
2022-11-13T02:50:25.765Z,1021.81
2022-11-13T02:51:25.755Z,1021.82
2022-11-13T02:52:25.809Z,1021.83
2022-11-13T02:53:25.753Z,1021.77
2022-11-13T02:54:25.755Z,1021.80
2022-11-13T02:55:25.741Z,1021.77
2022-11-13T02:56:25.744Z,1021.77
2022-11-13T02:57:25.735Z,1021.72
2022-11-13T02:58:26.178Z,1021.76
2022-11-13T02:59:25.736Z,1021.74
2022-11-13T03:00:25.732Z,1021.75
2022-11-13T03:01:25.922Z,1021.73
2022-11-13T03:02:25.770Z,1021.71
2022-11-13T03:03:56.075Z,1021.70
2022-11-13T03:04:31.474Z,1021.71
2022-11-13T03:05:25.711Z,1021.67
2022-11-13T03:06:25.718Z,1021.66
2022-11-13T03:07:25.709Z,1021.65
2022-11-13T03:08:26.201Z,1021.68
2022-11-13T03:09:25.704Z,1021.66
2022-11-13T03:10:25.690Z,1021.65
2022-11-13T03:11:25.690Z,1021.67
2022-11-13T03:12:25.698Z,1021.70
2022-11-13T03:13:25.678Z,1021.69
2022-11-13T03:14:25.683Z,1021.67
2022-11-13T03:15:25.678Z,1021.67
2022-11-13T03:16:25.678Z,1021.66
2022-11-13T03:17:25.784Z,1021.63
2022-11-13T03:18:26.015Z,1021.70
2022-11-13T03:19:25.665Z,1021.62
2022-11-13T03:20:25.663Z,1021.64
2022-11-13T03:21:25.665Z,1021.65
2022-11-13T03:22:25.672Z,1021.65
2022-11-13T03:23:25.657Z,1021.68
2022-11-13T03:24:25.650Z,1021.68
2022-11-13T03:25:25.648Z,1021.68
2022-11-13T03:26:25.647Z,1021.70
2022-11-13T03:27:25.634Z,1021.72
2022-11-13T03:28:26.017Z,1021.71
2022-11-13T03:29:25.631Z,1021.70
2022-11-13T03:30:25.629Z,1021.68
2022-11-13T03:31:25.620Z,1021.66
2022-11-13T03:32:25.631Z,1021.69
2022-11-13T03:33:25.751Z,1021.69
2022-11-13T03:34:25.609Z,1021.69
2022-11-13T03:35:29.757Z,1021.70
2022-11-13T03:36:25.612Z,1021.69
2022-11-13T03:37:25.601Z,1021.69
2022-11-13T03:38:26.091Z,1021.66
2022-11-13T03:39:25.611Z,1021.71
2022-11-13T03:40:25.592Z,1021.69
2022-11-13T03:41:25.631Z,1021.73
2022-11-13T03:42:25.608Z,1021.69
2022-11-13T03:43:25.580Z,1021.69
2022-11-13T03:44:25.577Z,1021.70
2022-11-13T03:45:25.576Z,1021.69
2022-11-13T03:46:25.578Z,1021.70
2022-11-13T03:47:25.576Z,1021.68
2022-11-13T03:48:25.761Z,1021.71
2022-11-13T03:49:25.578Z,1021.71
2022-11-13T03:50:25.564Z,1021.68
2022-11-13T03:51:25.555Z,1021.67
2022-11-13T03:52:25.564Z,1021.67
2022-11-13T03:53:25.569Z,1021.69
2022-11-13T03:54:25.542Z,1021.68
2022-11-13T03:55:25.540Z,1021.66
2022-11-13T03:56:25.541Z,1021.65
2022-11-13T03:57:25.540Z,1021.66
2022-11-13T03:58:25.924Z,1021.62
2022-11-13T03:59:25.521Z,1021.66
2022-11-13T04:00:25.529Z,1021.61
2022-11-13T04:01:25.594Z,1021.57
2022-11-13T04:02:25.513Z,1021.53
2022-11-13T04:03:25.520Z,1021.56
2022-11-13T04:04:25.507Z,1021.52
2022-11-13T04:05:25.644Z,1021.54
2022-11-13T04:06:25.513Z,1021.55
2022-11-13T04:07:25.509Z,1021.54
2022-11-13T04:08:25.818Z,1021.57
2022-11-13T04:09:25.487Z,1021.51
2022-11-13T04:10:25.498Z,1021.52
2022-11-13T04:11:25.494Z,1021.51
2022-11-13T04:12:25.494Z,1021.52
2022-11-13T04:13:25.489Z,1021.54
2022-11-13T04:14:25.485Z,1021.48
2022-11-13T04:15:25.480Z,1021.49
2022-11-13T04:16:25.479Z,1021.48
2022-11-13T04:17:25.477Z,1021.44
2022-11-13T04:18:25.785Z,1021.49
2022-11-13T04:19:25.459Z,1021.46
2022-11-13T04:20:25.458Z,1021.46
2022-11-13T04:21:25.570Z,1021.46
2022-11-13T04:22:25.445Z,1021.46
2022-11-13T04:23:25.462Z,1021.39
2022-11-13T04:24:25.439Z,1021.46
2022-11-13T04:25:25.433Z,1021.41
2022-11-13T04:26:25.436Z,1021.38
2022-11-13T04:27:25.447Z,1021.42
2022-11-13T04:28:25.572Z,1021.36
2022-11-13T04:29:25.426Z,1021.34
2022-11-13T04:30:25.424Z,1021.34
2022-11-13T04:31:25.417Z,1021.31
2022-11-13T04:32:25.417Z,1021.30
2022-11-13T04:33:25.417Z,1021.27
2022-11-13T04:34:25.455Z,1021.29
2022-11-13T04:35:25.404Z,1021.27
2022-11-13T04:36:25.407Z,1021.27
2022-11-13T04:37:25.511Z,1021.23
2022-11-13T04:38:25.598Z,1021.27
2022-11-13T04:39:25.396Z,1021.22
2022-11-13T04:40:25.387Z,1021.24
2022-11-13T04:41:25.384Z,1021.20
2022-11-13T04:42:25.385Z,1021.21
2022-11-13T04:43:25.385Z,1021.21
2022-11-13T04:44:25.370Z,1021.21
2022-11-13T04:45:25.367Z,1021.17
2022-11-13T04:46:25.370Z,1021.17
2022-11-13T04:47:25.359Z,1021.15
2022-11-13T04:48:25.696Z,1021.18
2022-11-13T04:49:25.359Z,1021.13
2022-11-13T04:50:25.362Z,1021.13
2022-11-13T04:51:25.381Z,1021.08
2022-11-13T04:52:25.347Z,1021.08
2022-11-13T04:53:25.463Z,1021.07
2022-11-13T04:54:28.695Z,1021.07
2022-11-13T04:55:25.340Z,1021.05
2022-11-13T04:56:25.337Z,1021.03
2022-11-13T04:57:25.324Z,1021.01
2022-11-13T04:58:25.636Z,1021.02
2022-11-13T04:59:25.331Z,1021.03
2022-11-13T05:00:25.321Z,1020.99
2022-11-13T05:01:25.335Z,1020.95
2022-11-13T05:02:25.314Z,1020.97
2022-11-13T05:03:25.314Z,1020.95
2022-11-13T05:04:25.299Z,1020.95
2022-11-13T05:05:25.299Z,1020.95
2022-11-13T05:06:25.297Z,1020.95
2022-11-13T05:07:25.308Z,1020.94
2022-11-13T05:08:25.650Z,1020.92
2022-11-13T05:09:25.400Z,1020.91
2022-11-13T05:10:25.289Z,1020.90
2022-11-13T05:11:25.284Z,1020.89
2022-11-13T05:12:25.272Z,1020.88
2022-11-13T05:13:25.272Z,1020.89
2022-11-13T05:14:25.268Z,1020.87
2022-11-13T05:15:25.269Z,1020.85
2022-11-13T05:16:25.260Z,1020.87
2022-11-13T05:17:25.270Z,1020.86
2022-11-13T05:18:25.563Z,1020.86
2022-11-13T05:19:25.248Z,1020.89
2022-11-13T05:20:25.252Z,1020.87
2022-11-13T05:21:25.242Z,1020.89
2022-11-13T05:22:25.241Z,1020.88
2022-11-13T05:23:25.245Z,1020.87
2022-11-13T05:24:25.230Z,1020.87
2022-11-13T05:25:25.349Z,1020.87
2022-11-13T05:26:25.227Z,1020.86
2022-11-13T05:27:25.230Z,1020.82
2022-11-13T05:28:25.449Z,1020.85
2022-11-13T05:29:25.223Z,1020.83
2022-11-13T05:30:25.219Z,1020.84
2022-11-13T05:31:25.210Z,1020.82
2022-11-13T05:32:25.204Z,1020.82
2022-11-13T05:33:25.203Z,1020.85
2022-11-13T05:34:25.207Z,1020.86
2022-11-13T05:35:25.205Z,1020.81
2022-11-13T05:36:25.197Z,1020.82
2022-11-13T05:37:25.204Z,1020.85
2022-11-13T05:38:25.348Z,1020.84
2022-11-13T05:39:25.187Z,1020.81
2022-11-13T05:40:25.177Z,1020.81
2022-11-13T05:41:25.294Z,1020.81
2022-11-13T05:42:25.168Z,1020.84
2022-11-13T05:43:25.170Z,1020.78
2022-11-13T05:44:25.166Z,1020.77
2022-11-13T05:45:25.167Z,1020.78
2022-11-13T05:46:25.162Z,1020.78
2022-11-13T05:47:25.152Z,1020.76
2022-11-13T05:48:25.499Z,1020.75
2022-11-13T05:49:25.149Z,1020.73
2022-11-13T05:50:25.136Z,1020.71
2022-11-13T05:51:25.138Z,1020.68
2022-11-13T05:52:25.143Z,1020.67
2022-11-13T05:53:25.135Z,1020.67
2022-11-13T05:54:25.136Z,1020.65
2022-11-13T05:55:25.126Z,1020.61
2022-11-13T05:56:25.128Z,1020.59
2022-11-13T05:57:25.235Z,1020.54
2022-11-13T05:58:25.288Z,1020.57
2022-11-13T05:59:25.110Z,1020.55
2022-11-13T06:00:25.111Z,1020.55
2022-11-13T06:01:25.102Z,1020.51
2022-11-13T06:02:25.132Z,1020.54
2022-11-13T06:03:25.104Z,1020.48
2022-11-13T06:04:25.089Z,1020.51
2022-11-13T06:05:25.091Z,1020.47
2022-11-13T06:06:25.097Z,1020.46
2022-11-13T06:07:25.081Z,1020.42
2022-11-13T06:08:25.159Z,1020.47
2022-11-13T06:09:25.078Z,1020.42
2022-11-13T06:10:25.075Z,1020.42
2022-11-13T06:11:25.076Z,1020.38
2022-11-13T06:12:25.063Z,1020.42
2022-11-13T06:13:25.191Z,1020.39
2022-11-13T06:14:25.058Z,1020.39
2022-11-13T06:15:25.058Z,1020.37
2022-11-13T06:16:25.048Z,1020.34
2022-11-13T06:17:25.055Z,1020.34
2022-11-13T06:18:26.688Z,1020.31
2022-11-13T06:19:25.048Z,1020.28
2022-11-13T06:20:25.041Z,1020.26
2022-11-13T06:21:25.038Z,1020.25
2022-11-13T06:22:25.038Z,1020.22
2022-11-13T06:23:25.028Z,1020.20
2022-11-13T06:24:25.024Z,1020.21
2022-11-13T06:25:25.026Z,1020.18
2022-11-13T06:26:25.012Z,1020.15
2022-11-13T06:27:25.027Z,1020.14
2022-11-13T06:28:25.147Z,1020.14
2022-11-13T06:29:25.124Z,1020.11
2022-11-13T06:30:24.998Z,1020.13
2022-11-13T06:31:24.998Z,1020.13
2022-11-13T06:32:25.003Z,1020.12
2022-11-13T06:33:24.985Z,1020.12
2022-11-13T06:34:24.989Z,1020.13
2022-11-13T06:35:24.989Z,1020.12
2022-11-13T06:36:24.988Z,1020.09
2022-11-13T06:37:24.984Z,1020.16
2022-11-13T06:38:25.196Z,1020.11
2022-11-13T06:39:24.986Z,1020.12
2022-11-13T06:40:24.966Z,1020.15
2022-11-13T06:41:24.978Z,1020.11
2022-11-13T06:42:24.959Z,1020.06
2022-11-13T06:43:24.963Z,1020.08
2022-11-13T06:44:24.961Z,1020.09
2022-11-13T06:45:25.060Z,1020.11
2022-11-13T06:46:24.973Z,1020.04
2022-11-13T06:47:24.943Z,1020.04
2022-11-13T06:48:25.012Z,1020.05
2022-11-13T06:49:24.941Z,1020.06
2022-11-13T06:50:24.933Z,1020.06
2022-11-13T06:51:24.923Z,1020.09
2022-11-13T06:52:24.934Z,1020.05
2022-11-13T06:53:24.940Z,1020.09
2022-11-13T06:54:24.919Z,1020.07
2022-11-13T06:55:24.922Z,1020.07
2022-11-13T06:56:24.923Z,1020.09
2022-11-13T06:57:24.917Z,1020.13
2022-11-13T06:58:25.024Z,1020.11
2022-11-13T06:59:24.900Z,1020.12
2022-11-13T07:00:24.899Z,1020.13
2022-11-13T07:01:25.116Z,1020.06
2022-11-13T07:02:24.891Z,1020.12
2022-11-13T07:03:24.889Z,1020.13
2022-11-13T07:04:24.880Z,1020.13
2022-11-13T07:05:24.877Z,1020.18
2022-11-13T07:06:24.883Z,1020.14
2022-11-13T07:07:24.917Z,1020.19
2022-11-13T07:08:24.896Z,1020.16
2022-11-13T07:09:24.881Z,1020.16
2022-11-13T07:10:24.860Z,1020.18
2022-11-13T07:11:24.869Z,1020.15
2022-11-13T07:12:24.865Z,1020.17
2022-11-13T07:13:24.849Z,1020.15
2022-11-13T07:14:24.845Z,1020.17
2022-11-13T07:15:24.845Z,1020.17
2022-11-13T07:16:26.300Z,1020.17
2022-11-13T07:17:24.956Z,1020.15
2022-11-13T07:18:24.829Z,1020.17
2022-11-13T07:19:24.836Z,1020.18
2022-11-13T07:20:24.824Z,1020.12
2022-11-13T07:21:24.822Z,1020.17
2022-11-13T07:22:24.822Z,1020.14
2022-11-13T07:23:24.815Z,1020.18
2022-11-13T07:24:24.809Z,1020.15
2022-11-13T07:25:24.819Z,1020.16
2022-11-13T07:26:24.812Z,1020.16
2022-11-13T07:27:24.801Z,1020.11
2022-11-13T07:28:24.834Z,1020.11
2022-11-13T07:29:24.795Z,1020.05
2022-11-13T07:30:24.806Z,1020.10
2022-11-13T07:31:24.791Z,1020.06
2022-11-13T07:32:24.798Z,1020.02
2022-11-13T07:33:24.896Z,1019.99
2022-11-13T07:34:24.773Z,1019.99
2022-11-13T07:35:24.775Z,1019.99
2022-11-13T07:36:24.794Z,1019.94
2022-11-13T07:37:24.770Z,1019.96
2022-11-13T07:38:24.820Z,1019.97
2022-11-13T07:39:24.759Z,1019.89
2022-11-13T07:40:24.764Z,1019.90
2022-11-13T07:41:24.750Z,1019.90
2022-11-13T07:42:24.754Z,1019.91
2022-11-13T07:43:24.742Z,1019.88
2022-11-13T07:44:52.879Z,1019.91
2022-11-13T07:45:24.737Z,1019.88
2022-11-13T07:46:24.736Z,1019.89
2022-11-13T07:47:24.735Z,1019.86
2022-11-13T07:48:24.846Z,1019.88
2022-11-13T07:49:24.845Z,1019.86
2022-11-13T07:50:24.724Z,1019.85
2022-11-13T07:51:24.722Z,1019.82
2022-11-13T07:52:24.723Z,1019.86
2022-11-13T07:53:24.706Z,1019.85
2022-11-13T07:54:24.710Z,1019.87
2022-11-13T07:55:24.711Z,1019.85
2022-11-13T07:56:24.697Z,1019.83
2022-11-13T07:57:24.698Z,1019.84
2022-11-13T07:58:24.748Z,1019.87
2022-11-13T07:59:24.695Z,1019.87
2022-11-13T08:00:24.686Z,1019.83
2022-11-13T08:01:24.707Z,1019.81
2022-11-13T08:02:26.774Z,1019.88
2022-11-13T08:03:24.676Z,1019.86
2022-11-13T08:04:24.667Z,1019.83
2022-11-13T08:05:24.778Z,1019.84
2022-11-13T08:06:24.666Z,1019.84
2022-11-13T08:07:24.788Z,1019.89
2022-11-13T08:08:24.653Z,1019.89
2022-11-13T08:09:24.654Z,1019.86
2022-11-13T08:10:24.653Z,1019.90
2022-11-13T08:11:24.657Z,1019.86
2022-11-13T08:12:24.641Z,1019.90
2022-11-13T08:13:24.637Z,1019.89
2022-11-13T08:14:24.639Z,1019.88
2022-11-13T08:15:24.632Z,1019.88
2022-11-13T08:16:24.628Z,1019.90
2022-11-13T08:17:24.633Z,1019.87
2022-11-13T08:18:24.691Z,1019.92
2022-11-13T08:19:24.621Z,1019.88
2022-11-13T08:20:24.624Z,1019.88
2022-11-13T08:21:24.844Z,1019.85
2022-11-13T08:22:24.605Z,1019.80
2022-11-13T08:23:24.607Z,1019.81
2022-11-13T08:24:24.611Z,1019.83
2022-11-13T08:25:24.600Z,1019.82
2022-11-13T08:26:24.602Z,1019.79
2022-11-13T08:27:24.592Z,1019.79
2022-11-13T08:28:24.589Z,1019.73
2022-11-13T08:29:24.591Z,1019.77
2022-11-13T08:30:24.586Z,1019.78
2022-11-13T08:31:24.584Z,1019.72
2022-11-13T08:32:24.572Z,1019.72
2022-11-13T08:33:24.564Z,1019.71
2022-11-13T08:34:24.573Z,1019.67
2022-11-13T08:35:29.112Z,1019.67
2022-11-13T08:36:24.578Z,1019.69
2022-11-13T08:37:24.667Z,1019.63
2022-11-13T08:38:24.557Z,1019.66
2022-11-13T08:39:24.547Z,1019.64
2022-11-13T08:40:24.552Z,1019.57
2022-11-13T08:41:24.558Z,1019.62
2022-11-13T08:42:24.541Z,1019.60
2022-11-13T08:43:24.544Z,1019.56
2022-11-13T08:44:24.535Z,1019.52
2022-11-13T08:45:24.525Z,1019.51
2022-11-13T08:46:24.529Z,1019.49
2022-11-13T08:47:29.352Z,1019.41
2022-11-13T08:48:24.520Z,1019.43
2022-11-13T08:49:24.518Z,1019.44
2022-11-13T08:50:24.505Z,1019.43
2022-11-13T08:51:24.508Z,1019.42
2022-11-13T08:52:24.499Z,1019.46
2022-11-13T08:53:24.604Z,1019.43
2022-11-13T08:54:24.506Z,1019.47
2022-11-13T08:55:24.494Z,1019.47
2022-11-13T08:56:24.496Z,1019.46
2022-11-13T08:57:24.487Z,1019.46
2022-11-13T08:58:24.474Z,1019.46
2022-11-13T08:59:24.495Z,1019.45
2022-11-13T09:00:24.490Z,1019.44
2022-11-13T09:01:24.482Z,1019.40
2022-11-13T09:02:24.469Z,1019.35
2022-11-13T09:03:24.606Z,1019.37
2022-11-13T09:04:24.469Z,1019.39
2022-11-13T09:05:24.474Z,1019.32
2022-11-13T09:06:24.510Z,1019.27
2022-11-13T09:07:27.391Z,1019.32
2022-11-13T09:08:24.446Z,1019.34
2022-11-13T09:09:24.565Z,1019.37
2022-11-13T09:10:24.502Z,1019.32
2022-11-13T09:11:24.458Z,1019.34
2022-11-13T09:12:24.433Z,1019.32
2022-11-13T09:13:24.434Z,1019.37
2022-11-13T09:14:24.436Z,1019.36
2022-11-13T09:15:24.780Z,1019.30
2022-11-13T09:16:24.433Z,1019.30
2022-11-13T09:17:24.427Z,1019.32
2022-11-13T09:18:24.421Z,1019.26
2022-11-13T09:19:24.412Z,1019.24
2022-11-13T09:20:24.414Z,1019.21
2022-11-13T09:21:24.416Z,1019.24
2022-11-13T09:22:24.404Z,1019.21
2022-11-13T09:23:24.399Z,1019.24
2022-11-13T09:24:24.398Z,1019.22
2022-11-13T09:25:24.520Z,1019.23
2022-11-13T09:26:24.395Z,1019.21
2022-11-13T09:27:24.390Z,1019.21
2022-11-13T09:28:24.385Z,1019.25
2022-11-13T09:29:24.386Z,1019.23
2022-11-13T09:30:24.384Z,1019.25
2022-11-13T09:31:24.388Z,1019.20
2022-11-13T09:32:24.381Z,1019.19
2022-11-13T09:33:24.372Z,1019.20
2022-11-13T09:34:24.368Z,1019.20
2022-11-13T09:35:24.372Z,1019.20
2022-11-13T09:36:24.378Z,1019.23
2022-11-13T09:37:24.375Z,1019.23
2022-11-13T09:38:24.356Z,1019.21
2022-11-13T09:39:24.352Z,1019.21
2022-11-13T09:40:24.365Z,1019.17
2022-11-13T09:41:24.475Z,1019.22
2022-11-13T09:42:24.367Z,1019.18
2022-11-13T09:43:24.355Z,1019.27
2022-11-13T09:44:24.343Z,1019.20
2022-11-13T09:45:24.341Z,1019.17
2022-11-13T09:46:24.342Z,1019.17
2022-11-13T09:47:24.346Z,1019.13
2022-11-13T09:48:24.387Z,1019.13
2022-11-13T09:49:24.396Z,1019.06
2022-11-13T09:50:24.440Z,1019.11
2022-11-13T09:51:24.350Z,1019.08
2022-11-13T09:52:24.384Z,1019.08
2022-11-13T09:53:24.354Z,1019.12
2022-11-13T09:54:24.410Z,1019.10
2022-11-13T09:55:24.320Z,1019.13
2022-11-13T09:56:24.316Z,1019.10
2022-11-13T09:57:26.282Z,1019.17
2022-11-13T09:58:24.312Z,1019.13
2022-11-13T09:59:24.317Z,1019.11
2022-11-13T10:00:24.315Z,1019.10
2022-11-13T10:01:24.380Z,1019.09
2022-11-13T10:02:24.305Z,1019.06
2022-11-13T10:03:46.251Z,1019.07
2022-11-13T10:04:24.297Z,1019.07
2022-11-13T10:05:24.293Z,1019.05
2022-11-13T10:06:24.297Z,1019.00
2022-11-13T10:07:24.390Z,1019.04
2022-11-13T10:08:24.307Z,1019.03
2022-11-13T10:09:24.294Z,1019.01
2022-11-13T10:10:24.292Z,1019.04
2022-11-13T10:11:24.288Z,1019.03
2022-11-13T10:12:24.297Z,1019.03
2022-11-13T10:13:24.391Z,1019.03
2022-11-13T10:14:24.283Z,1019.02
2022-11-13T10:15:24.283Z,1019.01
2022-11-13T10:16:24.273Z,1019.02
2022-11-13T10:17:24.277Z,1018.98
2022-11-13T10:18:24.274Z,1018.98
2022-11-13T10:19:24.273Z,1018.97
2022-11-13T10:20:24.272Z,1018.95
2022-11-13T10:21:24.269Z,1018.97
2022-11-13T10:22:33.555Z,1018.95
2022-11-13T10:23:24.277Z,1018.95
2022-11-13T10:24:24.270Z,1018.90
2022-11-13T10:25:24.267Z,1018.89
2022-11-13T10:26:24.260Z,1018.93
2022-11-13T10:27:24.262Z,1018.89
2022-11-13T10:28:52.081Z,1018.89
2022-11-13T10:29:24.372Z,1018.89
2022-11-13T10:30:24.250Z,1018.91
2022-11-13T10:31:24.253Z,1018.86
2022-11-13T10:32:24.264Z,1018.85
2022-11-13T10:33:24.254Z,1018.84
2022-11-13T10:34:24.254Z,1018.81
2022-11-13T10:35:24.246Z,1018.79
2022-11-13T10:36:24.237Z,1018.73
2022-11-13T10:37:24.229Z,1018.74
2022-11-13T10:38:24.235Z,1018.73
2022-11-13T10:39:24.225Z,1018.72
2022-11-13T10:40:24.237Z,1018.68
2022-11-13T10:41:24.218Z,1018.67
2022-11-13T10:42:24.273Z,1018.66
2022-11-13T10:43:24.229Z,1018.61
2022-11-13T10:44:24.234Z,1018.58
2022-11-13T10:45:24.400Z,1018.58
2022-11-13T10:46:24.211Z,1018.57
2022-11-13T10:47:49.174Z,1018.55
2022-11-13T10:48:24.208Z,1018.53
2022-11-13T10:49:24.213Z,1018.52
2022-11-13T10:50:24.204Z,1018.54
2022-11-13T10:51:24.210Z,1018.51
2022-11-13T10:52:24.207Z,1018.51
2022-11-13T10:53:24.202Z,1018.43
2022-11-13T10:54:24.217Z,1018.42
2022-11-13T10:55:24.202Z,1018.43
2022-11-13T10:56:24.193Z,1018.39
2022-11-13T10:57:24.200Z,1018.36
2022-11-13T10:58:24.187Z,1018.37
2022-11-13T10:59:24.228Z,1018.33
2022-11-13T11:00:24.226Z,1018.32
2022-11-13T11:01:24.474Z,1018.29
2022-11-13T11:02:24.176Z,1018.27
2022-11-13T11:03:24.178Z,1018.23
2022-11-13T11:04:24.211Z,1018.24
2022-11-13T11:05:24.175Z,1018.19
2022-11-13T11:06:36.594Z,1018.17
2022-11-13T11:07:24.278Z,1018.13
2022-11-13T11:08:24.192Z,1018.12
2022-11-13T11:09:24.166Z,1018.11
2022-11-13T11:10:24.161Z,1018.07
2022-11-13T11:11:24.161Z,1018.08
2022-11-13T11:12:30.338Z,1018.07
2022-11-13T11:13:24.165Z,1018.05
2022-11-13T11:14:24.189Z,1018.02
2022-11-13T11:15:24.159Z,1018.05
2022-11-13T11:16:24.161Z,1018.01
2022-11-13T11:17:24.259Z,1018.02
2022-11-13T11:18:24.145Z,1018.04
2022-11-13T11:19:24.159Z,1018.03
2022-11-13T11:20:24.137Z,1018.00
2022-11-13T11:21:24.140Z,1017.95
2022-11-13T11:22:24.146Z,1017.96
2022-11-13T11:23:24.141Z,1017.93
2022-11-13T11:24:24.150Z,1017.97
2022-11-13T11:25:24.133Z,1017.87
2022-11-13T11:26:24.121Z,1017.91
2022-11-13T11:27:24.130Z,1017.85
2022-11-13T11:28:24.125Z,1017.83
2022-11-13T11:29:24.124Z,1017.83
2022-11-13T11:30:24.122Z,1017.82
2022-11-13T11:31:24.110Z,1017.82
2022-11-13T11:32:24.115Z,1017.81
2022-11-13T11:33:24.227Z,1017.75
2022-11-13T11:34:24.106Z,1017.73
2022-11-13T11:35:24.115Z,1017.74
2022-11-13T11:36:24.118Z,1017.74
2022-11-13T11:37:24.105Z,1017.73
2022-11-13T11:38:24.099Z,1017.71
2022-11-13T11:39:24.098Z,1017.68
2022-11-13T11:40:24.088Z,1017.71
2022-11-13T11:41:24.085Z,1017.66
2022-11-13T11:42:24.096Z,1017.63
2022-11-13T11:43:24.088Z,1017.60
2022-11-13T11:44:24.088Z,1017.55
2022-11-13T11:45:24.097Z,1017.55
2022-11-13T11:46:24.083Z,1017.47
2022-11-13T11:47:24.075Z,1017.44
2022-11-13T11:48:24.072Z,1017.47
2022-11-13T11:49:24.181Z,1017.46
2022-11-13T11:50:24.065Z,1017.44
2022-11-13T11:51:24.064Z,1017.44
2022-11-13T11:52:24.063Z,1017.38
2022-11-13T11:53:24.057Z,1017.39
2022-11-13T11:54:24.054Z,1017.37
2022-11-13T11:55:24.051Z,1017.33
2022-11-13T11:56:24.048Z,1017.38
2022-11-13T11:57:24.056Z,1017.36
2022-11-13T11:58:24.035Z,1017.36
2022-11-13T11:59:24.040Z,1017.36
2022-11-13T12:00:24.034Z,1017.32
2022-11-13T12:01:24.019Z,1017.39
2022-11-13T12:02:24.018Z,1017.30
2022-11-13T12:03:24.014Z,1017.31
2022-11-13T12:04:24.007Z,1017.33
2022-11-13T12:05:24.275Z,1017.32